sept
11

GP D’ITALIE : LES PÔLES POUR ROCZEN ET PHILIPPAERTS

MX1 – Qualifying Race – Classification
Pos Nr Rider Nat. Fed. Bike Time laps Diff. First Diff. Prev. Bestlaptime in lap Speed

1 19 Philippaerts, David ITA FMI Yamaha 24:33.353 13 0:00.000 0:00.000 1:50.171 11 53.916
2 90 Pourcel, Sebastien FRA FFM Kawasaki 24:37.141 13 0:03.788 0:03.788 1:49.668 9 54.163
3 331 Aubin, Nicolas FRA FFM Kawasaki 24:38.669 13 0:05.316 0:01.528 1:51.180 5 53.427

4 222 Cairoli, Antonio ITA FMI KTM 24:40.903 13 0:07.550 0:02.234 1:50.452 6 53.779
5 11 Ramon, Steve BEL FMB Suzuki 24:47.188 13 0:13.835 0:06.285 1:50.329 8 53.839
6 39 Guarneri, Davide ITA FMI Honda 24:49.565 13 0:16.212 0:02.377 1:51.089 7 53.471
7 2 Nagl, Maximilian GER DMSB KTM 24:50.309 13 0:16.956 0:00.744 1:50.023 8 53.989
8 25 Desalle, Clement BEL FMB Suzuki 24:59.918 13 0:26.565 0:09.609 1:51.846 6 53.109
9 702 Albertson, Jimmy USA AMA Honda 25:00.622 13 0:27.269 0:00.704 1:51.772 6 53.144
10 121 Boog, Xavier FRA FFM Kawasaki 25:01.584 13 0:28.231 0:00.962 1:51.626 11 53.213
11 6 Coppins, Joshua NZL MNZ Aprilia 25:05.817 13 0:32.464 0:04.233 1:52.249 7 52.918
12 22 Goncalves, Rui POR FMP KTM 25:10.787 13 0:37.434 0:04.970 1:52.716 12 52.699
13 20 Aranda, Gregory FRA FFM Kawasaki 25:14.175 13 0:40.822 0:03.388 1:52.456 11 52.821
14 115 Campano Jimenez, Carlos ESP RFME Yamaha 25:22.057 13 0:48.704 0:07.882 1:53.022 8 52.556
15 40 Leok, Tanel EST EMF Honda 25:22.803 13 0:49.450 0:00.746 1:53.647 10 52.267
16 13 Monni, Manuel ITA FMI Yamaha 25:30.875 13 0:57.522 0:08.072 1:53.089 10 52.525
17 9 de Dycker, Ken BEL FMB Yamaha 25:40.048 13 1:06.695 0:09.173 1:53.192 10 52.477
18 120 Soubeyras, Cedric FRA FFM KTM 25:40.256 13 1:06.903 0:00.208 1:53.846 6 52.176
19 383 Bellino, Mathias FRA FFM KTM 25:43.491 13 1:10.138 0:03.235 1:54.644 8 51.813

20 7 Barragan, Jonathan ESP RFME Kawasaki 25:47.101 13 1:13.748 0:03.610 1:51.436 7 53.304
21 14 de Reuver, Marc NED MUL Suzuki 25:48.514 13 1:15.161 0:01.413 1:53.459 11 52.354
22 79 Butron, Jose Antonio ESP RFME Suzuki 25:52.294 13 1:18.941 0:03.780 1:54.707 6 51.784
23 75 Wouts, Kevin BEL FMB Kawasaki 25:56.118 13 1:22.765 0:03.824 1:54.846 7 51.721
24 124 Brakke, Herjan NED KNMV Yamaha 25:57.777 13 1:24.424 0:01.659 1:55.179 10 51.572
25 152 Balbi, Antonio BRA CBM Kawasaki 25:58.284 13 1:24.931 0:00.507 1:54.586 10 51.839
26 52 Walkner, Matthias AUT OeAMTC KTM 26:04.990 13 1:31.637 0:06.706 1:55.541 10 51.41
27 287 Schiffer, Marcus GER DMSB Suzuki 26:07.402 13 1:34.049 0:02.412 1:54.671 9 51.8
28 49 Schmidinger, Günter AUT OeAMTC Suzuki 26:12.874 13 1:39.521 0:05.472 1:56.211 9 51.114
29 36 Bonini, Matteo ITA FMI Yamaha 26:15.971 13 1:42.618 0:03.097 1:56.311 13 51.07
30 45 Leonce, Loic FRA FFM Suzuki 26:21.772 13 1:48.419 0:05.801 1:58.086 12 50.302
31 711 Ferris, Dean AUS MA Honda 24:35.121 12 1 lap 1 lap 1:57.046 11 50.749
32 32 Priem, Manuel BEL FMB Aprilia 24:49.532 12 1 lap 0:14.411 1:55.552 9 51.405
33 74 Steinbergs, Ivo LAT LAMSF Honda 25:03.734 12 1 lap 0:14.202 1:59.520 9 49.699
34 174 Smith, Alfie GBR ACU Aprilia 25:11.379 12 1 lap 0:07.645 1:59.532 6 49.694
35 316 Bertuccelli, Giovanni ITA FMI KTM 25:22.292 12 1 lap 0:10.913 1:58.199 7 50.254
36 59 Pedri, Lorenzo ITA FMI Honda 26:17.856 12 1 lap 0:55.564 2:01.018 5 49.084
37 21 Jacquelin, Morgan FRA FFM Suzuki 2:31.223 1 12 laps 11 laps 2:12.213 1 44.928
38 76 Sandberg, Rickard SWE SVEMO Kawasaki 2:37.856 1 12 laps 0:06.633 2:16.347 1 43.565

MX2 – Qualifying Race – Classification
Pos Nr Rider Nat. Fed. Bike Time laps Diff. First Diff. Prev. Bestlaptime in lap Speed

1 94 Roczen, Ken GER DMSB Suzuki 24:18.105 13 0:00.000 0:00.000 1:50.333 11 53.837
2 1 Musquin, Marvin FRA FFM KTM 24:19.153 13 0:01.048 0:01.048 1:49.829 6 54.084
3 89 van Horebeek, Jeremy BEL FMB Kawasaki 24:43.655 13 0:25.550 0:24.502 1:51.109 4 53.461
4 183 Frossard, Steven FRA FFM Kawasaki 24:52.471 13 0:34.366 0:08.816 1:50.937 4 53.544
5 21 Paulin, Gautier FRA MCM Yamaha 24:54.782 13 0:36.677 0:02.311 1:51.900 5 53.083
6 23 Tonus, Arnaud SUI FMS Suzuki 24:57.844 13 0:39.739 0:03.062 1:52.136 12 52.971
7 37 Teillet, Valentin FRA FFM KTM 25:08.817 13 0:50.712 0:10.973 1:52.433 9 52.831

8 338 Osborne, Zach USA AMA Yamaha 25:14.787 13 0:56.682 0:05.970 1:53.042 9 52.547
9 170 Leib, Michael USA AMA Kawasaki 25:18.848 13 1:00.743 0:04.061 1:52.285 9 52.901
10 77 Lupino, Alessandro ITA FMI Yamaha 25:21.064 13 1:02.959 0:02.216 1:53.156 11 52.494
11 34 Roelants, Joel BEL FMB KTM 25:25.039 13 1:06.934 0:03.975 1:54.033 12 52.09
12 430 Charlier, Christophe FRA FFM Yamaha 25:26.315 13 1:08.210 0:01.276 1:53.301 11 52.427
13 45 Nicholls, Jake GBR ACU KTM 25:33.826 13 1:15.721 0:07.511 1:54.605 9 51.83
14 151 Kullas, Harri FIN SML Yamaha 25:37.799 13 1:19.694 0:03.973 1:54.141 12 52.041
15 35 Larsen, Nikolaj DEN DMU Honda 25:51.079 13 1:32.974 0:13.280 1:55.873 7 51.263
16 25 Coldenhoff, Glenn NED KNMV Yamaha 25:55.319 13 1:37.214 0:04.240 1:55.620 12 51.375
17 91 Karro, Matiss LAT LAMSF Suzuki 25:59.825 13 1:41.720 0:04.506 1:55.542 12 51.41
18 335 Verbruggen, Dennis BEL FMB KTM 26:00.336 13 1:42.231 0:00.511 1:55.288 10 51.523
19 262 Del Segato, Giacomo ITA FMI Suzuki 26:08.361 13 1:50.256 0:08.025 1:56.172 10 51.131
20 75 Triest, Nick BEL FMB KTM 26:11.754 13 1:53.649 0:03.393 1:56.014 8 51.201
21 47 Bertuzzo, Pier Filippo ITA FMI KTM 26:13.752 13 1:55.647 0:01.998 1:56.914 11 50.807
22 11 Simpson, Shaun GBR MCUI KTM 24:22.499 12 1 lap 1 lap 1:56.608 7 50.94
23 181 Michek, Martin CZE ACCR TM 24:23.848 12 1 lap 0:01.349 1:56.795 10 50.858
24 152 Petrov, Petar BUL BMF Honda 24:28.310 12 1 lap 0:04.462 1:57.834 10 50.41
25 130 Lieber, Cedric BEL MUL Suzuki 24:29.731 12 1 lap 0:01.421 1:56.435 9 51.016
26 119 Pocock, Mel GBR ACU Yamaha 24:32.190 12 1 lap 0:02.459 1:58.805 5 49.998
27 90 Moroni, Rudi ITA FMI Yamaha 24:33.409 12 1 lap 0:01.219 1:58.805 6 49.998
28 299 Martini, Gianluca ITA FMI Honda 24:33.879 12 1 lap 0:00.470 1:58.252 12 50.232
29 62 Gercar, Klemen SLO AMZS KTM 24:36.062 12 1 lap 0:02.183 1:58.390 11 50.173
30 92 Battig, Alesandro ITA FMI Honda 24:48.694 12 1 lap 0:12.632 1:58.546 8 50.107
31 19 Smitka, Petr CZE ACCR KTM 24:50.367 12 1 lap 0:01.673 1:59.184 8 49.839
32 550 Mitchell, Sean ZIM ZMSF Suzuki 25:08.116 12 1 lap 0:17.749 2:00.643 8 49.236
33 26 Eriksson, Alexander SWE SVEMO KTM 25:26.316 12 1 lap 0:18.200 1:57.735 5 50.452
34 824 Kouwenberg, Nick NED KNMV Suzuki 25:33.968 12 1 lap 0:07.652 2:01.358 5 48.946
35 331 Lieber, Julien BEL MUL Suzuki 25:44.097 12 1 lap 0:10.129 1:57.411 12 50.592
36 414 Philippaerts, Deny ITA FMI Suzuki 22:08.411 11 2 laps 1 lap 1:57.236 9 50.667
37 214 Zeni, Samuel ITA FMI KTM 10:43.137 5 8 laps 6 laps 2:00.033 5 49.486
38 30 Klein Kromhof, Ceriel NED KNMV Yamaha 10:45.915 5 8 laps 0:02.778 1:59.714 5 49.618

STEPHANIE LAIER CHAMPIONNE DU MONDE 2010..!

WMX – Race 1 – Classification
Pos Nr Rider Nat. Fed. Bike Time laps Diff. First Diff. Prev. Bestlaptime in lap Speed

1 1 Laier, Stephanie GER DMSB KTM 25:23.046 12 0:00.000 0:00.000 2:03.678 4 48.028
2 8 Fontanesi, Chiara ITA FMI Yamaha 25:34.759 12 0:11.713 0:11.713 2:03.082 10 48.261
3 2 Papenmeier, Larissa GER DMSB Suzuki 25:35.933 12 0:12.887 0:01.174 2:04.093 10 47.867
4 114 Lancelot, Livia FRA FFM KTM 26:27.649 12 1:04.603 0:51.716 2:06.018 3 47.136
5 22 Pettersson, Sara SWE SVEMO KTM 26:51.119 12 1:28.073 0:23.470 2:08.754 12 46.134
6 99 Mann, Elin SWE SVEMO KTM 26:53.037 12 1:29.991 0:01.918 2:10.105 11 45.655
7 221 Simonet, Annabelle FRA FFM Kawasaki 27:00.978 12 1:37.932 0:07.941 2:08.968 10 46.058
8 116 Nocera, Francesca ITA FMI Honda 27:07.468 12 1:44.422 0:06.490 2:11.424 1 45.197
9 89 De Winter, Elien BEL FMB KTM 27:09.616 12 1:46.570 0:02.148 2:10.438 12 45.539
10 60 Bartova, Jana CZE ACCR Kawasaki 27:29.546 12 2:06.500 0:19.930 2:12.881 6 44.702
11 46 van der Wekken, Britt NED KNMV Honda 27:45.231 12 2:22.185 0:15.685 2:12.588 7 44.8
12 86 Verkade, Shirley NED KNMV KTM 25:26.056 11 1 lap 1 lap 2:14.060 6 44.309
13 7 De Mol, Marielle NED KNMV Yamaha 25:26.483 11 1 lap 0:00.427 2:13.143 7 44.614
14 149 Veenstra, Marianne NED KNMV Suzuki 25:28.326 11 1 lap 0:01.843 2:13.424 7 44.52
15 52 Charroux, Justine FRA FFM Yamaha 25:32.479 11 1 lap 0:04.153 2:13.743 10 44.414
16 118 Germond, Virginie SUI FMS Suzuki 25:36.896 11 1 lap 0:04.417 2:14.938 7 44.02
17 44 Kane, Natalie GBR MCUI KTM 25:37.161 11 1 lap 0:00.265 2:14.045 4 44.313
18 45 Jonasson, Filippa SWE SVEMO KTM 25:47.730 11 1 lap 0:10.569 2:15.150 8 43.951
19 36 de Barquin, Morane BEL FMB KTM 26:00.742 11 1 lap 0:13.012 2:16.016 8 43.671
20 93 Parrini, Floriana ITA FMI Suzuki 26:11.383 11 1 lap 0:10.641 2:16.998 3 43.358
21 31 Schittenhelm, Selina GER DMSB KTM 26:19.061 11 1 lap 0:07.678 2:18.781 6 42.801
22 16 Geyerhofer, Selina AUT OeAMTC KTM 26:20.374 11 1 lap 0:01.313 2:17.702 11 43.137
23 66 Einarsdottir, Bryndis ISL MSI KTM 26:40.175 11 1 lap 0:19.801 2:18.508 6 42.886
24 102 Pillet, Florence SUI FMS KTM 26:48.016 11 1 lap 0:07.841 2:21.414 6 42.004
25 19 Lankova, Barbora CZE ACCR Kawasaki 26:53.828 11 1 lap 0:05.812 2:20.572 10 42.256
26 113 Paull, Sophia GBR ACU Yamaha 26:57.281 11 1 lap 0:03.453 2:20.507 10 42.275
27 77 Johansson, Sofia SWE SVEMO KTM 26:59.224 11 1 lap 0:01.943 2:18.355 11 42.933
28 98 Haag, Angela SUI FMS Yamaha 27:10.545 11 1 lap 0:11.321 2:22.132 8 41.792
29 613 Magnoli, Alice ITA FMI Husqvarna 27:23.926 11 1 lap 0:13.381 2:20.376 5 42.315
30 897 Padrini, Stefania ITA FMI Suzuki 27:24.921 11 1 lap 0:00.995 2:25.301 5 40.881
31 25 Guryeva, Ekaterina RUS MFR KTM 27:24.997 11 1 lap 0:00.076 2:23.798 7 41.308
32 48 Lorca Moreno, Maria Eugenia VEN FMV Husqvarna 25:33.287 10 2 laps 1 lap 2:14.553 8 44.146
33 75 Van De Velde, Jessica BEL FMB Honda 25:53.707 10 2 laps 0:20.420 2:29.180 3 39.818
34 198 Dionisi, Romina ITA FMI Honda 26:04.745 10 2 laps 0:11.038 2:29.940 3 39.616
35 987 Lago, Erica ITA FMI Suzuki 26:16.336 10 2 laps 0:11.591 2:32.802 10 38.874
36 189 Sbrana, Alessandra ITA FMI Honda 10:44.092 3 9 laps 7 laps 2:31.735 3 39.147

(Photo : Ray Archer/KTM)

A voir aussi :

Le commentaires sont fermés.